Nearby METAR Reports

 

KOXC - Oxford/Waterbury, Connecticut, USA
Distance from station: NW 7mi, 11km
Updated: 04/27/2017 2:35am
Overcast
Overcast
 Wind from calm
Wind: Calm
Temperature: 55°F , 13°C
Dew Point: 54°F , 12°C
Humidity: 94%
Barometer: 29.87 inHg , 1011.5 hPa
Clouds: Overcast
Visibility: 1 mile , 2 km
Cloud details: Overcast 300 ft
2017/04/27 06:35 KOXC 270635Z AUTO 00000KT 1SM OVC003 13/12 A2987 RMK AO1
KHVN - New Haven/Tweed, Connecticut, USA
Distance from station: SE 13mi, 20km
Updated: 04/27/2017 2:53am
Mist, Overcast
Mist, Overcast
 Wind from calm
Wind: Calm
Temperature: 57°F , 14°C
Dew Point: 55°F , 13°C
Humidity: 94%
Barometer: 29.85 inHg , 1010.8 hPa
Summary: Mist
Clouds: Overcast
Visibility: 3 miles , 5 km
Cloud details: Partly cloudy 500 ft
Overcast 1300 ft
2017/04/27 06:53 KHVN 270653Z AUTO 00000KT 3SM BR SCT005 OVC013 14/13 A2985 RMK AO2 SLP107 T01390133
 
KMMK - Meriden, Connecticut, USA
Distance from station: NE 13mi, 21km
Updated: 04/27/2017 2:53am
Mist, Overcast
Mist, Overcast
 Wind from NW
Wind: NW 3 mph , 6 km/h
Temperature: 59°F , 15°C
Dew Point: 57°F , 14°C
Humidity: 94%
Barometer: 29.85 inHg , 1010.8 hPa
Summary: Mist
Clouds: Overcast
Visibility: 2 1/2 miles , 2 km
Cloud details: Overcast 500 ft
2017/04/27 06:53 KMMK 270653Z AUTO 32003KT 2 1/2SM BR OVC005 15/14 A2985 RMK AO2 SLP107 T01500139 TSNO
KBDR - Bridgeport, Connecticut, USA
Distance from station: SSW 17mi, 27km
Updated: 04/27/2017 2:52am
Mist, Overcast
Mist, Overcast
 Wind from SW
Wind: SW 5 mph , 7 km/h
Temperature: 55°F , 13°C
Dew Point: 54°F , 12°C
Humidity: 94%
Barometer: 29.85 inHg , 1010.8 hPa
Summary: Mist
Clouds: Overcast
Visibility: 6 miles , 10 km
Cloud details: Mostly cloudy 1000 ft
Overcast 1900 ft
2017/04/27 06:52 KBDR 270652Z AUTO 23004KT 6SM BR BKN010 OVC019 13/12 A2985 RMK AO2 SLP107 T01330117
 
KDXR - Danbury, Connecticut, USA
Distance from station: W 23mi, 38km
Updated: 04/27/2017 2:53am
Overcast
Overcast
 Wind from W
Wind: W 3 mph , 6 km/h
Temperature: 55°F , 13°C
Dew Point: 55°F , 13°C
Humidity: 100%
Barometer: 29.86 inHg , 1011.2 hPa
Clouds: Overcast
Visibility: 10 miles , 16 km
Cloud details: Partly cloudy 800 ft
Overcast 1300 ft
2017/04/27 06:53 KDXR 270653Z AUTO 26003KT 10SM SCT008 OVC013 13/13 A2986 RMK AO2 SLP109 T01330133